Cuivre River (Missouri), Troy (05514500)

StateMissouriLatestFlood (4240 cfs)
RiverCuivre RiverRatingObservedEstimated
Updated2020-02-25 20:30 (22 minutes ago)Flood - The river is flooding. Obstacles can be treacherous or deadly. The river should be avoided at this stage for casual trips and definitely for the inexperienced. Trips should be attempted only with protective gear and equipment.Flood(none)2644
Discharge4240 cfs (median: 220 cfs)High - The river is high and potentially dangerous, especially for the young and / or inexperienced. Normal stream obstacles are sometimes difficult to navigate. Extended distances can be attempted, but canoe travel may not be advisable.High(none)675
Height12.98 feetGood - Conditions are ideal for a canoe or kayak. Boats typically will drag on fewer than one-quarter of riffles, if at all, and portages are unnecessary or rare. Normal float lengths can be attempted without a problem.Good(none)205
TrendFalling (rising over 24 hours)Low - River is low but can still be floated. Some riffles are okay but most come with significant dragging and might need a portage. Float lengths should be reduced to accommodate low flow, dragging, and portages.Low(none)129
USGSExternal icon USGS Site (External icon Google Maps)Poor - River is too low to float comfortably. Most or all riffles will drag or must be portaged and some obstacles (such as slick shelf rock) cause undue problems. Avoid the river at this stage for casual paddling trips.Poor(none)31

Trending Data

Plot Image

Trips for Cuivre River (Missouri), Troy (05514500)

DateStartEndDistanceConditionDischargeHeightFishingDetails

A total of 0 rows are displayed.

Condition Descriptions

Fishing Conditions

Fish Species

Notes

Classic Trip List

The classic River Trips application is still available for use. It is updated with the new system using a data retrofit. It is no longer maintained. The original River Trips application is no longer updated (as of 1 Dec 2016) but can be checked for errors or for the condition of the data before it was converted to the new system.

Gauge Data Table

ObservationHeightDischargeMaximum
Discharge
Minimum
Discharge
Mean
Discharge
P05P10P20P25P50
(Median)
P75P80P90P95
2020-02-25 20:30 12.98 4240 23000 (2001) 2 (1954) 1050 17 37 67 89 220 857 1020 2000 4570
2020-02-25 20:00 13.06 4300 23000 (2001) 2 (1954) 1050 17 37 67 89 220 857 1020 2000 4570
2020-02-25 19:30 13.08 4320 23000 (2001) 2 (1954) 1050 17 37 67 89 220 857 1020 2000 4570
2020-02-25 19:00 13.13 4360 23000 (2001) 2 (1954) 1050 17 37 67 89 220 857 1020 2000 4570
2020-02-25 18:30 13.18 4400 23000 (2001) 2 (1954) 1050 17 37 67 89 220 857 1020 2000 4570
2020-02-25 18:00 13.22 4430 23000 (2001) 2 (1954) 1050 17 37 67 89 220 857 1020 2000 4570
2020-02-25 17:30 13.25 4450 23000 (2001) 2 (1954) 1050 17 37 67 89 220 857 1020 2000 4570
2020-02-25 17:00 13.29 4480 23000 (2001) 2 (1954) 1050 17 37 67 89 220 857 1020 2000 4570
2020-02-25 16:30 13.31 4500 23000 (2001) 2 (1954) 1050 17 37 67 89 220 857 1020 2000 4570
2020-02-25 16:00 13.34 4520 23000 (2001) 2 (1954) 1050 17 37 67 89 220 857 1020 2000 4570
2020-02-25 15:30 13.36 4540 23000 (2001) 2 (1954) 1050 17 37 67 89 220 857 1020 2000 4570
2020-02-25 15:00 13.37 4540 23000 (2001) 2 (1954) 1050 17 37 67 89 220 857 1020 2000 4570
2020-02-25 14:30 13.38 4550 23000 (2001) 2 (1954) 1050 17 37 67 89 220 857 1020 2000 4570
2020-02-25 14:00 13.33 4510 23000 (2001) 2 (1954) 1050 17 37 67 89 220 857 1020 2000 4570
2020-02-25 13:30 13.31 4500 23000 (2001) 2 (1954) 1050 17 37 67 89 220 857 1020 2000 4570
2020-02-25 13:00 13.28 4470 23000 (2001) 2 (1954) 1050 17 37 67 89 220 857 1020 2000 4570
2020-02-25 12:30 13.21 4420 23000 (2001) 2 (1954) 1050 17 37 67 89 220 857 1020 2000 4570
2020-02-25 12:00 13.13 4360 23000 (2001) 2 (1954) 1050 17 37 67 89 220 857 1020 2000 4570
2020-02-25 11:30 13.01 4260 23000 (2001) 2 (1954) 1050 17 37 67 89 220 857 1020 2000 4570
2020-02-25 11:00 12.91 4190 23000 (2001) 2 (1954) 1050 17 37 67 89 220 857 1020 2000 4570
2020-02-25 10:30 12.81 4110 23000 (2001) 2 (1954) 1050 17 37 67 89 220 857 1020 2000 4570
2020-02-25 10:00 12.72 4050 23000 (2001) 2 (1954) 1050 17 37 67 89 220 857 1020 2000 4570
2020-02-25 09:30 12.65 3990 23000 (2001) 2 (1954) 1050 17 37 67 89 220 857 1020 2000 4570
2020-02-25 09:00 12.58 3940 23000 (2001) 2 (1954) 1050 17 37 67 89 220 857 1020 2000 4570
2020-02-25 08:30 12.51 3890 23000 (2001) 2 (1954) 1050 17 37 67 89 220 857 1020 2000 4570
2020-02-25 08:00 12.47 3860 23000 (2001) 2 (1954) 1050 17 37 67 89 220 857 1020 2000 4570
2020-02-25 07:30 12.39 3800 23000 (2001) 2 (1954) 1050 17 37 67 89 220 857 1020 2000 4570
2020-02-25 07:00 12.37 3790 23000 (2001) 2 (1954) 1050 17 37 67 89 220 857 1020 2000 4570
2020-02-25 06:30 12.32 3750 23000 (2001) 2 (1954) 1050 17 37 67 89 220 857 1020 2000 4570
2020-02-25 06:00 12.26 3710 23000 (2001) 2 (1954) 1050 17 37 67 89 220 857 1020 2000 4570
2020-02-25 05:30 12.22 3680 23000 (2001) 2 (1954) 1050 17 37 67 89 220 857 1020 2000 4570
2020-02-25 05:00 12.16 3630 23000 (2001) 2 (1954) 1050 17 37 67 89 220 857 1020 2000 4570
2020-02-25 04:30 12.11 3600 23000 (2001) 2 (1954) 1050 17 37 67 89 220 857 1020 2000 4570
2020-02-25 04:00 12.03 3540 23000 (2001) 2 (1954) 1050 17 37 67 89 220 857 1020 2000 4570
2020-02-25 03:30 11.97 3500 23000 (2001) 2 (1954) 1050 17 37 67 89 220 857 1020 2000 4570
2020-02-25 03:00 11.86 3420 23000 (2001) 2 (1954) 1050 17 37 67 89 220 857 1020 2000 4570
2020-02-25 02:30 11.73 3330 23000 (2001) 2 (1954) 1050 17 37 67 89 220 857 1020 2000 4570
2020-02-25 02:00 11.62 3250 23000 (2001) 2 (1954) 1050 17 37 67 89 220 857 1020 2000 4570
2020-02-25 01:30 11.50 3170 23000 (2001) 2 (1954) 1050 17 37 67 89 220 857 1020 2000 4570
2020-02-25 01:00 11.34 3060 23000 (2001) 2 (1954) 1050 17 37 67 89 220 857 1020 2000 4570
2020-02-25 00:30 11.19 2960 23000 (2001) 2 (1954) 1050 17 37 67 89 220 857 1020 2000 4570
2020-02-25 00:00 11.06 2870 23000 (2001) 2 (1954) 1050 17 37 67 89 220 857 1020 2000 4570
2020-02-24 23:30 10.92 2780 11300 (1985) 1 (1954) 779 15 35 59 93 217 777 1100 1900 2520
2020-02-24 23:00 10.77 2680 11300 (1985) 1 (1954) 779 15 35 59 93 217 777 1100 1900 2520
2020-02-24 22:30 10.54 2540 11300 (1985) 1 (1954) 779 15 35 59 93 217 777 1100 1900 2520
2020-02-24 22:00 10.24 2350 11300 (1985) 1 (1954) 779 15 35 59 93 217 777 1100 1900 2520
2020-02-24 21:30 9.84 2120 11300 (1985) 1 (1954) 779 15 35 59 93 217 777 1100 1900 2520
2020-02-24 21:00 9.29 1770 11300 (1985) 1 (1954) 779 15 35 59 93 217 777 1100 1900 2520
2020-02-24 20:30 8.72 1310 11300 (1985) 1 (1954) 779 15 35 59 93 217 777 1100 1900 2520
2020-02-24 20:00 8.36 1070 11300 (1985) 1 (1954) 779 15 35 59 93 217 777 1100 1900 2520
2020-02-24 19:30 8.28 1020 11300 (1985) 1 (1954) 779 15 35 59 93 217 777 1100 1900 2520
2020-02-24 19:00 8.26 1010 11300 (1985) 1 (1954) 779 15 35 59 93 217 777 1100 1900 2520
2020-02-24 18:30 8.20 969 11300 (1985) 1 (1954) 779 15 35 59 93 217 777 1100 1900 2520
2020-02-24 18:00 8.18 957 11300 (1985) 1 (1954) 779 15 35 59 93 217 777 1100 1900 2520
2020-02-24 17:30 8.12 922 11300 (1985) 1 (1954) 779 15 35 59 93 217 777 1100 1900 2520
2020-02-24 17:00 8.03 871 11300 (1985) 1 (1954) 779 15 35 59 93 217 777 1100 1900 2520
2020-02-24 16:30 7.88 791 11300 (1985) 1 (1954) 779 15 35 59 93 217 777 1100 1900 2520
2020-02-24 16:00 7.66 682 11300 (1985) 1 (1954) 779 15 35 59 93 217 777 1100 1900 2520
2020-02-24 15:30 7.46 592 11300 (1985) 1 (1954) 779 15 35 59 93 217 777 1100 1900 2520
2020-02-24 15:00 7.33 538 11300 (1985) 1 (1954) 779 15 35 59 93 217 777 1100 1900 2520
2020-02-24 14:30 7.24 502 11300 (1985) 1 (1954) 779 15 35 59 93 217 777 1100 1900 2520
2020-02-24 14:00 7.18 479 11300 (1985) 1 (1954) 779 15 35 59 93 217 777 1100 1900 2520
2020-02-24 13:30 7.11 454 11300 (1985) 1 (1954) 779 15 35 59 93 217 777 1100 1900 2520
2020-02-24 13:00 7.08 443 11300 (1985) 1 (1954) 779 15 35 59 93 217 777 1100 1900 2520
2020-02-24 12:30 6.97 405 11300 (1985) 1 (1954) 779 15 35 59 93 217 777 1100 1900 2520
2020-02-24 12:00 6.87 372 11300 (1985) 1 (1954) 779 15 35 59 93 217 777 1100 1900 2520
2020-02-24 11:30 6.70 317 11300 (1985) 1 (1954) 779 15 35 59 93 217 777 1100 1900 2520
2020-02-24 11:00 6.72 323 11300 (1985) 1 (1954) 779 15 35 59 93 217 777 1100 1900 2520
2020-02-24 10:30 6.69 313 11300 (1985) 1 (1954) 779 15 35 59 93 217 777 1100 1900 2520
2020-02-24 10:00 6.68 310 11300 (1985) 1 (1954) 779 15 35 59 93 217 777 1100 1900 2520
2020-02-24 09:30 6.67 307 11300 (1985) 1 (1954) 779 15 35 59 93 217 777 1100 1900 2520
2020-02-24 09:00 6.65 301 11300 (1985) 1 (1954) 779 15 35 59 93 217 777 1100 1900 2520
2020-02-24 08:30 6.63 294 11300 (1985) 1 (1954) 779 15 35 59 93 217 777 1100 1900 2520
2020-02-24 08:00 6.63 294 11300 (1985) 1 (1954) 779 15 35 59 93 217 777 1100 1900 2520
2020-02-24 07:30 6.64 297 11300 (1985) 1 (1954) 779 15 35 59 93 217 777 1100 1900 2520
2020-02-24 07:00 6.64 297 11300 (1985) 1 (1954) 779 15 35 59 93 217 777 1100 1900 2520
2020-02-24 06:30 6.64 297 11300 (1985) 1 (1954) 779 15 35 59 93 217 777 1100 1900 2520
2020-02-24 06:00 6.63 294 11300 (1985) 1 (1954) 779 15 35 59 93 217 777 1100 1900 2520
2020-02-24 05:30 6.63 294 11300 (1985) 1 (1954) 779 15 35 59 93 217 777 1100 1900 2520
2020-02-24 05:00 6.62 291 11300 (1985) 1 (1954) 779 15 35 59 93 217 777 1100 1900 2520
2020-02-24 04:30 6.63 294 11300 (1985) 1 (1954) 779 15 35 59 93 217 777 1100 1900 2520
2020-02-24 04:00 6.62 291 11300 (1985) 1 (1954) 779 15 35 59 93 217 777 1100 1900 2520
2020-02-24 03:30 6.63 294 11300 (1985) 1 (1954) 779 15 35 59 93 217 777 1100 1900 2520
2020-02-24 03:00 6.63 294 11300 (1985) 1 (1954) 779 15 35 59 93 217 777 1100 1900 2520
2020-02-24 02:30 6.63 294 11300 (1985) 1 (1954) 779 15 35 59 93 217 777 1100 1900 2520
2020-02-24 02:00 6.63 294 11300 (1985) 1 (1954) 779 15 35 59 93 217 777 1100 1900 2520
2020-02-24 01:30 6.63 294 11300 (1985) 1 (1954) 779 15 35 59 93 217 777 1100 1900 2520
2020-02-24 01:00 6.63 294 11300 (1985) 1 (1954) 779 15 35 59 93 217 777 1100 1900 2520
2020-02-24 00:30 6.63 294 11300 (1985) 1 (1954) 779 15 35 59 93 217 777 1100 1900 2520
2020-02-24 00:00 6.64 297 11300 (1985) 1 (1954) 779 15 35 59 93 217 777 1100 1900 2520
2020-02-23 23:30 6.64 297 28300 (1985) 1 (1954) 1170 16 25 60 81 210 1020 1320 2500 5170
2020-02-23 23:00 6.64 297 28300 (1985) 1 (1954) 1170 16 25 60 81 210 1020 1320 2500 5170
2020-02-23 22:30 6.64 297 28300 (1985) 1 (1954) 1170 16 25 60 81 210 1020 1320 2500 5170
2020-02-23 22:00 6.64 297 28300 (1985) 1 (1954) 1170 16 25 60 81 210 1020 1320 2500 5170
2020-02-23 21:30 6.64 297 28300 (1985) 1 (1954) 1170 16 25 60 81 210 1020 1320 2500 5170
2020-02-23 21:00 6.64 297 28300 (1985) 1 (1954) 1170 16 25 60 81 210 1020 1320 2500 5170
2020-02-23 20:30 6.64 297 28300 (1985) 1 (1954) 1170 16 25 60 81 210 1020 1320 2500 5170
2020-02-23 20:00 6.64 297 28300 (1985) 1 (1954) 1170 16 25 60 81 210 1020 1320 2500 5170
2020-02-23 19:30 6.64 297 28300 (1985) 1 (1954) 1170 16 25 60 81 210 1020 1320 2500 5170
2020-02-23 19:00 6.64 297 28300 (1985) 1 (1954) 1170 16 25 60 81 210 1020 1320 2500 5170
2020-02-23 18:30 6.64 297 28300 (1985) 1 (1954) 1170 16 25 60 81 210 1020 1320 2500 5170
2020-02-23 18:00 6.64 297 28300 (1985) 1 (1954) 1170 16 25 60 81 210 1020 1320 2500 5170
2020-02-23 17:30 6.65 301 28300 (1985) 1 (1954) 1170 16 25 60 81 210 1020 1320 2500 5170
2020-02-23 17:00 6.65 301 28300 (1985) 1 (1954) 1170 16 25 60 81 210 1020 1320 2500 5170
2020-02-23 16:30 6.65 301 28300 (1985) 1 (1954) 1170 16 25 60 81 210 1020 1320 2500 5170
2020-02-23 16:00 6.65 301 28300 (1985) 1 (1954) 1170 16 25 60 81 210 1020 1320 2500 5170
2020-02-23 15:30 6.65 301 28300 (1985) 1 (1954) 1170 16 25 60 81 210 1020 1320 2500 5170
2020-02-23 15:00 6.65 301 28300 (1985) 1 (1954) 1170 16 25 60 81 210 1020 1320 2500 5170
2020-02-23 14:30 6.66 304 28300 (1985) 1 (1954) 1170 16 25 60 81 210 1020 1320 2500 5170
2020-02-23 14:00 6.66 304 28300 (1985) 1 (1954) 1170 16 25 60 81 210 1020 1320 2500 5170
2020-02-23 13:30 6.66 304 28300 (1985) 1 (1954) 1170 16 25 60 81 210 1020 1320 2500 5170
2020-02-23 13:00 6.66 304 28300 (1985) 1 (1954) 1170 16 25 60 81 210 1020 1320 2500 5170
2020-02-23 12:30 6.66 304 28300 (1985) 1 (1954) 1170 16 25 60 81 210 1020 1320 2500 5170
2020-02-23 12:00 6.66 304 28300 (1985) 1 (1954) 1170 16 25 60 81 210 1020 1320 2500 5170
2020-02-23 11:30 6.66 304 28300 (1985) 1 (1954) 1170 16 25 60 81 210 1020 1320 2500 5170
2020-02-23 11:00 6.66 304 28300 (1985) 1 (1954) 1170 16 25 60 81 210 1020 1320 2500 5170
2020-02-23 10:30 6.66 304 28300 (1985) 1 (1954) 1170 16 25 60 81 210 1020 1320 2500 5170
2020-02-23 10:00 6.66 304 28300 (1985) 1 (1954) 1170 16 25 60 81 210 1020 1320 2500 5170
2020-02-23 09:30 6.66 304 28300 (1985) 1 (1954) 1170 16 25 60 81 210 1020 1320 2500 5170
2020-02-23 09:00 6.67 307 28300 (1985) 1 (1954) 1170 16 25 60 81 210 1020 1320 2500 5170
2020-02-23 08:30 6.67 307 28300 (1985) 1 (1954) 1170 16 25 60 81 210 1020 1320 2500 5170
2020-02-23 08:00 6.67 307 28300 (1985) 1 (1954) 1170 16 25 60 81 210 1020 1320 2500 5170
2020-02-23 07:30 6.68 310 28300 (1985) 1 (1954) 1170 16 25 60 81 210 1020 1320 2500 5170
2020-02-23 07:00 6.68 310 28300 (1985) 1 (1954) 1170 16 25 60 81 210 1020 1320 2500 5170
2020-02-23 06:30 6.68 310 28300 (1985) 1 (1954) 1170 16 25 60 81 210 1020 1320 2500 5170
2020-02-23 06:00 6.68 310 28300 (1985) 1 (1954) 1170 16 25 60 81 210 1020 1320 2500 5170
2020-02-23 05:30 6.68 310 28300 (1985) 1 (1954) 1170 16 25 60 81 210 1020 1320 2500 5170
2020-02-23 05:00 6.68 310 28300 (1985) 1 (1954) 1170 16 25 60 81 210 1020 1320 2500 5170
2020-02-23 04:30 6.69 313 28300 (1985) 1 (1954) 1170 16 25 60 81 210 1020 1320 2500 5170
2020-02-23 04:00 6.69 313 28300 (1985) 1 (1954) 1170 16 25 60 81 210 1020 1320 2500 5170
2020-02-23 03:30 6.69 313 28300 (1985) 1 (1954) 1170 16 25 60 81 210 1020 1320 2500 5170
2020-02-23 03:00 6.69 313 28300 (1985) 1 (1954) 1170 16 25 60 81 210 1020 1320 2500 5170
2020-02-23 02:30 6.69 313 28300 (1985) 1 (1954) 1170 16 25 60 81 210 1020 1320 2500 5170
2020-02-23 02:00 6.70 317 28300 (1985) 1 (1954) 1170 16 25 60 81 210 1020 1320 2500 5170
2020-02-23 01:30 6.70 317 28300 (1985) 1 (1954) 1170 16 25 60 81 210 1020 1320 2500 5170
2020-02-23 01:00 6.70 317 28300 (1985) 1 (1954) 1170 16 25 60 81 210 1020 1320 2500 5170
2020-02-23 00:30 6.70 317 28300 (1985) 1 (1954) 1170 16 25 60 81 210 1020 1320 2500 5170
2020-02-23 00:00 6.70 317 28300 (1985) 1 (1954) 1170 16 25 60 81 210 1020 1320 2500 5170
2020-02-22 23:30 6.70 317 22400 (1985) 2 (1954) 1340 16 25 64 88 235 948 1120 3690 7700
2020-02-22 23:00 6.70 317 22400 (1985) 2 (1954) 1340 16 25 64 88 235 948 1120 3690 7700
2020-02-22 22:30 6.71 320 22400 (1985) 2 (1954) 1340 16 25 64 88 235 948 1120 3690 7700
2020-02-22 22:00 6.71 320 22400 (1985) 2 (1954) 1340 16 25 64 88 235 948 1120 3690 7700
2020-02-22 21:30 6.71 320 22400 (1985) 2 (1954) 1340 16 25 64 88 235 948 1120 3690 7700
2020-02-22 21:00 6.71 320 22400 (1985) 2 (1954) 1340 16 25 64 88 235 948 1120 3690 7700
2020-02-22 20:30 6.72 323 22400 (1985) 2 (1954) 1340 16 25 64 88 235 948 1120 3690 7700
2020-02-22 20:00 6.72 323 22400 (1985) 2 (1954) 1340 16 25 64 88 235 948 1120 3690 7700
2020-02-22 19:30 6.72 323 22400 (1985) 2 (1954) 1340 16 25 64 88 235 948 1120 3690 7700
2020-02-22 19:00 6.72 323 22400 (1985) 2 (1954) 1340 16 25 64 88 235 948 1120 3690 7700
2020-02-22 18:30 6.72 323 22400 (1985) 2 (1954) 1340 16 25 64 88 235 948 1120 3690 7700
2020-02-22 18:00 6.73 327 22400 (1985) 2 (1954) 1340 16 25 64 88 235 948 1120 3690 7700
2020-02-22 17:30 6.73 327 22400 (1985) 2 (1954) 1340 16 25 64 88 235 948 1120 3690 7700
2020-02-22 17:00 6.74 330 22400 (1985) 2 (1954) 1340 16 25 64 88 235 948 1120 3690 7700
2020-02-22 16:30 6.74 330 22400 (1985) 2 (1954) 1340 16 25 64 88 235 948 1120 3690 7700
2020-02-22 16:00 6.74 330 22400 (1985) 2 (1954) 1340 16 25 64 88 235 948 1120 3690 7700
2020-02-22 15:30 6.75 333 22400 (1985) 2 (1954) 1340 16 25 64 88 235 948 1120 3690 7700
2020-02-22 15:00 6.75 333 22400 (1985) 2 (1954) 1340 16 25 64 88 235 948 1120 3690 7700
2020-02-22 14:30 6.75 333 22400 (1985) 2 (1954) 1340 16 25 64 88 235 948 1120 3690 7700
2020-02-22 14:00 6.76 337 22400 (1985) 2 (1954) 1340 16 25 64 88 235 948 1120 3690 7700
2020-02-22 13:30 6.76 337 22400 (1985) 2 (1954) 1340 16 25 64 88 235 948 1120 3690 7700
2020-02-22 13:00 6.76 337 22400 (1985) 2 (1954) 1340 16 25 64 88 235 948 1120 3690 7700
2020-02-22 12:30 6.76 337 22400 (1985) 2 (1954) 1340 16 25 64 88 235 948 1120 3690 7700
2020-02-22 12:00 6.76 337 22400 (1985) 2 (1954) 1340 16 25 64 88 235 948 1120 3690 7700
2020-02-22 11:30 6.72 323 22400 (1985) 2 (1954) 1340 16 25 64 88 235 948 1120 3690 7700
2020-02-22 11:00 6.69 313 22400 (1985) 2 (1954) 1340 16 25 64 88 235 948 1120 3690 7700
2020-02-22 10:30 6.75 333 22400 (1985) 2 (1954) 1340 16 25 64 88 235 948 1120 3690 7700
2020-02-22 10:00 6.77 340 22400 (1985) 2 (1954) 1340 16 25 64 88 235 948 1120 3690 7700
2020-02-22 09:30 6.77 340 22400 (1985) 2 (1954) 1340 16 25 64 88 235 948 1120 3690 7700
2020-02-22 09:00 6.77 340 22400 (1985) 2 (1954) 1340 16 25 64 88 235 948 1120 3690 7700
2020-02-22 08:30 6.77 340 22400 (1985) 2 (1954) 1340 16 25 64 88 235 948 1120 3690 7700
2020-02-22 08:00 6.78 344 22400 (1985) 2 (1954) 1340 16 25 64 88 235 948 1120 3690 7700
2020-02-22 07:30 6.78 344 22400 (1985) 2 (1954) 1340 16 25 64 88 235 948 1120 3690 7700
2020-02-22 07:00 6.79 347 22400 (1985) 2 (1954) 1340 16 25 64 88 235 948 1120 3690 7700
2020-02-22 06:30 6.79 347 22400 (1985) 2 (1954) 1340 16 25 64 88 235 948 1120 3690 7700
2020-02-22 06:00 6.80 351 22400 (1985) 2 (1954) 1340 16 25 64 88 235 948 1120 3690 7700
2020-02-22 05:30 6.80 351 22400 (1985) 2 (1954) 1340 16 25 64 88 235 948 1120 3690 7700
2020-02-22 05:00 6.80 351 22400 (1985) 2 (1954) 1340 16 25 64 88 235 948 1120 3690 7700
2020-02-22 04:30 6.81 354 22400 (1985) 2 (1954) 1340 16 25 64 88 235 948 1120 3690 7700
2020-02-22 04:00 6.81 354 22400 (1985) 2 (1954) 1340 16 25 64 88 235 948 1120 3690 7700
2020-02-22 03:30 6.82 357 22400 (1985) 2 (1954) 1340 16 25 64 88 235 948 1120 3690 7700
2020-02-22 03:00 6.82 357 22400 (1985) 2 (1954) 1340 16 25 64 88 235 948 1120 3690 7700
2020-02-22 02:30 6.83 360 22400 (1985) 2 (1954) 1340 16 25 64 88 235 948 1120 3690 7700
2020-02-22 02:00 6.83 360 22400 (1985) 2 (1954) 1340 16 25 64 88 235 948 1120 3690 7700
2020-02-22 01:30 6.83 360 22400 (1985) 2 (1954) 1340 16 25 64 88 235 948 1120 3690 7700
2020-02-22 01:00 6.84 363 22400 (1985) 2 (1954) 1340 16 25 64 88 235 948 1120 3690 7700
2020-02-22 00:30 6.84 363 22400 (1985) 2 (1954) 1340 16 25 64 88 235 948 1120 3690 7700
2020-02-22 00:00 6.84 363 22400 (1985) 2 (1954) 1340 16 25 64 88 235 948 1120 3690 7700
2020-02-21 23:30 6.84 363 22600 (1951) 2 (1954) 1150 16 26 65 82 214 1230 1690 2560 4840
2020-02-21 23:00 6.85 366 22600 (1951) 2 (1954) 1150 16 26 65 82 214 1230 1690 2560 4840
2020-02-21 22:30 6.85 366 22600 (1951) 2 (1954) 1150 16 26 65 82 214 1230 1690 2560 4840
2020-02-21 22:00 6.85 366 22600 (1951) 2 (1954) 1150 16 26 65 82 214 1230 1690 2560 4840
2020-02-21 21:30 6.86 369 22600 (1951) 2 (1954) 1150 16 26 65 82 214 1230 1690 2560 4840
2020-02-21 21:00 6.86 369 22600 (1951) 2 (1954) 1150 16 26 65 82 214 1230 1690 2560 4840
2020-02-21 20:30 6.87 372 22600 (1951) 2 (1954) 1150 16 26 65 82 214 1230 1690 2560 4840
2020-02-21 20:00 6.87 372 22600 (1951) 2 (1954) 1150 16 26 65 82 214 1230 1690 2560 4840
2020-02-21 19:30 6.88 376 22600 (1951) 2 (1954) 1150 16 26 65 82 214 1230 1690 2560 4840
2020-02-21 19:00 6.88 376 22600 (1951) 2 (1954) 1150 16 26 65 82 214 1230 1690 2560 4840
2020-02-21 18:30 6.89 379 22600 (1951) 2 (1954) 1150 16 26 65 82 214 1230 1690 2560 4840
2020-02-21 18:00 6.90 382 22600 (1951) 2 (1954) 1150 16 26 65 82 214 1230 1690 2560 4840
2020-02-21 17:30 6.90 382 22600 (1951) 2 (1954) 1150 16 26 65 82 214 1230 1690 2560 4840
2020-02-21 17:00 6.91 385 22600 (1951) 2 (1954) 1150 16 26 65 82 214 1230 1690 2560 4840
2020-02-21 16:30 6.92 388 22600 (1951) 2 (1954) 1150 16 26 65 82 214 1230 1690 2560 4840
2020-02-21 16:00 6.92 388 22600 (1951) 2 (1954) 1150 16 26 65 82 214 1230 1690 2560 4840
2020-02-21 15:30 6.93 392 22600 (1951) 2 (1954) 1150 16 26 65 82 214 1230 1690 2560 4840
2020-02-21 15:00 6.93 392 22600 (1951) 2 (1954) 1150 16 26 65 82 214 1230 1690 2560 4840
2020-02-21 14:30 6.94 395 22600 (1951) 2 (1954) 1150 16 26 65 82 214 1230 1690 2560 4840
2020-02-21 14:00 6.95 398 22600 (1951) 2 (1954) 1150 16 26 65 82 214 1230 1690 2560 4840
2020-02-21 13:30 6.95 398 22600 (1951) 2 (1954) 1150 16 26 65 82 214 1230 1690 2560 4840
2020-02-21 13:00 6.96 402 22600 (1951) 2 (1954) 1150 16 26 65 82 214 1230 1690 2560 4840
2020-02-21 12:30 6.96 402 22600 (1951) 2 (1954) 1150 16 26 65 82 214 1230 1690 2560 4840
2020-02-21 12:00 6.97 405 22600 (1951) 2 (1954) 1150 16 26 65 82 214 1230 1690 2560 4840
2020-02-21 11:30 6.97 405 22600 (1951) 2 (1954) 1150 16 26 65 82 214 1230 1690 2560 4840
2020-02-21 11:00 6.98 408 22600 (1951) 2 (1954) 1150 16 26 65 82 214 1230 1690 2560 4840
2020-02-21 10:30 6.98 408 22600 (1951) 2 (1954) 1150 16 26 65 82 214 1230 1690 2560 4840
2020-02-21 10:00 6.98 408 22600 (1951) 2 (1954) 1150 16 26 65 82 214 1230 1690 2560 4840
2020-02-21 09:30 6.99 412 22600 (1951) 2 (1954) 1150 16 26 65 82 214 1230 1690 2560 4840
2020-02-21 09:00 7.00 415 22600 (1951) 2 (1954) 1150 16 26 65 82 214 1230 1690 2560 4840
2020-02-21 08:30 7.01 419 22600 (1951) 2 (1954) 1150 16 26 65 82 214 1230 1690 2560 4840
2020-02-21 08:00 7.02 422 22600 (1951) 2 (1954) 1150 16 26 65 82 214 1230 1690 2560 4840
2020-02-21 07:30 7.03 425 22600 (1951) 2 (1954) 1150 16 26 65 82 214 1230 1690 2560 4840
2020-02-21 07:00 7.04 429 22600 (1951) 2 (1954) 1150 16 26 65 82 214 1230 1690 2560 4840
2020-02-21 06:30 7.04 429 22600 (1951) 2 (1954) 1150 16 26 65 82 214 1230 1690 2560 4840
2020-02-21 06:00 7.05 432 22600 (1951) 2 (1954) 1150 16 26 65 82 214 1230 1690 2560 4840
2020-02-21 05:30 7.06 436 22600 (1951) 2 (1954) 1150 16 26 65 82 214 1230 1690 2560 4840
2020-02-21 05:00 7.06 436 22600 (1951) 2 (1954) 1150 16 26 65 82 214 1230 1690 2560 4840
2020-02-21 04:30 7.07 439 22600 (1951) 2 (1954) 1150 16 26 65 82 214 1230 1690 2560 4840
2020-02-21 04:00 7.08 443 22600 (1951) 2 (1954) 1150 16 26 65 82 214 1230 1690 2560 4840
2020-02-21 03:30 7.09 446 22600 (1951) 2 (1954) 1150 16 26 65 82 214 1230 1690 2560 4840
2020-02-21 03:00 7.10 450 22600 (1951) 2 (1954) 1150 16 26 65 82 214 1230 1690 2560 4840
2020-02-21 02:30 7.11 454 22600 (1951) 2 (1954) 1150 16 26 65 82 214 1230 1690 2560 4840
2020-02-21 02:00 7.11 454 22600 (1951) 2 (1954) 1150 16 26 65 82 214 1230 1690 2560 4840
2020-02-21 01:30 7.12 457 22600 (1951) 2 (1954) 1150 16 26 65 82 214 1230 1690 2560 4840
2020-02-21 01:00 7.13 461 22600 (1951) 2 (1954) 1150 16 26 65 82 214 1230 1690 2560 4840
2020-02-21 00:30 7.14 465 22600 (1951) 2 (1954) 1150 16 26 65 82 214 1230 1690 2560 4840
2020-02-21 00:00 7.15 468 22600 (1951) 2 (1954) 1150 16 26 65 82 214 1230 1690 2560 4840
2020-02-20 23:30 7.16 472 9050 (1951) 2 (1954) 943 17 25 67 96 205 904 1310 3290 5940
2020-02-20 23:00 7.16 472 9050 (1951) 2 (1954) 943 17 25 67 96 205 904 1310 3290 5940
2020-02-20 22:30 7.17 476 9050 (1951) 2 (1954) 943 17 25 67 96 205 904 1310 3290 5940
2020-02-20 22:00 7.18 479 9050 (1951) 2 (1954) 943 17 25 67 96 205 904 1310 3290 5940
2020-02-20 21:30 7.19 483 9050 (1951) 2 (1954) 943 17 25 67 96 205 904 1310 3290 5940
2020-02-20 21:00 7.20 487 9050 (1951) 2 (1954) 943 17 25 67 96 205 904 1310 3290 5940
2020-02-20 20:30 7.21 491 9050 (1951) 2 (1954) 943 17 25 67 96 205 904 1310 3290 5940
2020-02-20 20:00 7.22 495 9050 (1951) 2 (1954) 943 17 25 67 96 205 904 1310 3290 5940
2020-02-20 19:30 7.23 498 9050 (1951) 2 (1954) 943 17 25 67 96 205 904 1310 3290 5940
2020-02-20 19:00 7.24 502 9050 (1951) 2 (1954) 943 17 25 67 96 205 904 1310 3290 5940
2020-02-20 18:30 7.26 510 9050 (1951) 2 (1954) 943 17 25 67 96 205 904 1310 3290 5940
2020-02-20 18:00 7.26 510 9050 (1951) 2 (1954) 943 17 25 67 96 205 904 1310 3290 5940
2020-02-20 17:30 7.27 514 9050 (1951) 2 (1954) 943 17 25 67 96 205 904 1310 3290 5940
2020-02-20 17:00 7.29 522 9050 (1951) 2 (1954) 943 17 25 67 96 205 904 1310 3290 5940
2020-02-20 16:30 7.30 526 9050 (1951) 2 (1954) 943 17 25 67 96 205 904 1310 3290 5940
2020-02-20 16:00 7.31 530 9050 (1951) 2 (1954) 943 17 25 67 96 205 904 1310 3290 5940
2020-02-20 15:30 7.33 538 9050 (1951) 2 (1954) 943 17 25 67 96 205 904 1310 3290 5940
2020-02-20 15:00 7.35 546 9050 (1951) 2 (1954) 943 17 25 67 96 205 904 1310 3290 5940
2020-02-20 14:30 7.36 550 9050 (1951) 2 (1954) 943 17 25 67 96 205 904 1310 3290 5940
2020-02-20 14:00 7.37 554 9050 (1951) 2 (1954) 943 17 25 67 96 205 904 1310 3290 5940
2020-02-20 13:30 7.38 558 9050 (1951) 2 (1954) 943 17 25 67 96 205 904 1310 3290 5940
2020-02-20 13:00 7.39 562 9050 (1951) 2 (1954) 943 17 25 67 96 205 904 1310 3290 5940
2020-02-20 12:30 7.41 571 9050 (1951) 2 (1954) 943 17 25 67 96 205 904 1310 3290 5940
2020-02-20 12:00 7.41 571 9050 (1951) 2 (1954) 943 17 25 67 96 205 904 1310 3290 5940
2020-02-20 11:30 7.43 579 9050 (1951) 2 (1954) 943 17 25 67 96 205 904 1310 3290 5940
2020-02-20 11:00 7.45 588 9050 (1951) 2 (1954) 943 17 25 67 96 205 904 1310 3290 5940
2020-02-20 10:30 7.46 592 9050 (1951) 2 (1954) 943 17 25 67 96 205 904 1310 3290 5940
2020-02-20 10:00 7.47 596 9050 (1951) 2 (1954) 943 17 25 67 96 205 904 1310 3290 5940
2020-02-20 09:30 7.49 605 9050 (1951) 2 (1954) 943 17 25 67 96 205 904 1310 3290 5940
2020-02-20 09:00 7.50 609 9050 (1951) 2 (1954) 943 17 25 67 96 205 904 1310 3290 5940
2020-02-20 08:30 7.52 618 9050 (1951) 2 (1954) 943 17 25 67 96 205 904 1310 3290 5940
2020-02-20 08:00 627 9050 (1951) 2 (1954) 943 17 25 67 96 205 904 1310 3290 5940
2020-02-20 07:30 7.55 631 9050 (1951) 2 (1954) 943 17 25 67 96 205 904 1310 3290 5940
2020-02-20 07:00 7.57 640 9050 (1951) 2 (1954) 943 17 25 67 96 205 904 1310 3290 5940
2020-02-20 06:30 7.59 649 9050 (1951) 2 (1954) 943 17 25 67 96 205 904 1310 3290 5940
2020-02-20 06:00 7.59 649 9050 (1951) 2 (1954) 943 17 25 67 96 205 904 1310 3290 5940
2020-02-20 05:30 7.61 659 9050 (1951) 2 (1954) 943 17 25 67 96 205 904 1310 3290 5940
2020-02-20 05:00 7.63 668 9050 (1951) 2 (1954) 943 17 25 67 96 205 904 1310 3290 5940
2020-02-20 04:30 7.64 673 9050 (1951) 2 (1954) 943 17 25 67 96 205 904 1310 3290 5940
2020-02-20 04:00 7.67 687 9050 (1951) 2 (1954) 943 17 25 67 96 205 904 1310 3290 5940
2020-02-20 03:30 7.68 691 9050 (1951) 2 (1954) 943 17 25 67 96 205 904 1310 3290 5940
2020-02-20 03:00 7.70 701 9050 (1951) 2 (1954) 943 17 25 67 96 205 904 1310 3290 5940
2020-02-20 02:30 7.72 711 9050 (1951) 2 (1954) 943 17 25 67 96 205 904 1310 3290 5940
2020-02-20 02:00 7.73 715 9050 (1951) 2 (1954) 943 17 25 67 96 205 904 1310 3290 5940
2020-02-20 01:30 7.76 730 9050 (1951) 2 (1954) 943 17 25 67 96 205 904 1310 3290 5940
2020-02-20 01:00 7.78 740 9050 (1951) 2 (1954) 943 17 25 67 96 205 904 1310 3290 5940
2020-02-20 00:30 7.80 750 9050 (1951) 2 (1954) 943 17 25 67 96 205 904 1310 3290 5940
2020-02-20 00:00 7.83 765 9050 (1951) 2 (1954) 943 17 25 67 96 205 904 1310 3290 5940
2020-02-19 23:30 7.84 770 12300 (1951) 2 (1954) 1040 15 26 67 98 212 957 1760 3410 5510
2020-02-19 23:00 7.86 781 12300 (1951) 2 (1954) 1040 15 26 67 98 212 957 1760 3410 5510
2020-02-19 22:30 7.89 796 12300 (1951) 2 (1954) 1040 15 26 67 98 212 957 1760 3410 5510
2020-02-19 22:00 7.91 807 12300 (1951) 2 (1954) 1040 15 26 67 98 212 957 1760 3410 5510
2020-02-19 21:30 7.93 817 12300 (1951) 2 (1954) 1040 15 26 67 98 212 957 1760 3410 5510
2020-02-19 21:00 7.97 839 12300 (1951) 2 (1954) 1040 15 26 67 98 212 957 1760 3410 5510
2020-02-19 20:30 7.98 844 12300 (1951) 2 (1954) 1040 15 26 67 98 212 957 1760 3410 5510
2020-02-19 20:00 8.00 855 12300 (1951) 2 (1954) 1040 15 26 67 98 212 957 1760 3410 5510
2020-02-19 19:30 8.03 871 12300 (1951) 2 (1954) 1040 15 26 67 98 212 957 1760 3410 5510
2020-02-19 19:00 8.06 888 12300 (1951) 2 (1954) 1040 15 26 67 98 212 957 1760 3410 5510
2020-02-19 18:30 8.10 911 12300 (1951) 2 (1954) 1040 15 26 67 98 212 957 1760 3410 5510
2020-02-19 18:00 8.10 911 12300 (1951) 2 (1954) 1040 15 26 67 98 212 957 1760 3410 5510
2020-02-19 17:30 8.15 940 12300 (1951) 2 (1954) 1040 15 26 67 98 212 957 1760 3410 5510
2020-02-19 17:00 8.17 951 12300 (1951) 2 (1954) 1040 15 26 67 98 212 957 1760 3410 5510
2020-02-19 16:30 8.20 969 12300 (1951) 2 (1954) 1040 15 26 67 98 212 957 1760 3410 5510
2020-02-19 16:00 8.21 975 12300 (1951) 2 (1954) 1040 15 26 67 98 212 957 1760 3410 5510
2020-02-19 15:30 8.27 1010 12300 (1951) 2 (1954) 1040 15 26 67 98 212 957 1760 3410 5510
2020-02-19 15:00 8.27 1010 12300 (1951) 2 (1954) 1040 15 26 67 98 212 957 1760 3410 5510
2020-02-19 14:30 8.31 1040 12300 (1951) 2 (1954) 1040 15 26 67 98 212 957 1760 3410 5510
2020-02-19 14:00 8.33 1050 12300 (1951) 2 (1954) 1040 15 26 67 98 212 957 1760 3410 5510
2020-02-19 13:30 8.37 1070 12300 (1951) 2 (1954) 1040 15 26 67 98 212 957 1760 3410 5510
2020-02-19 13:00 8.40 1090 12300 (1951) 2 (1954) 1040 15 26 67 98 212 957 1760 3410 5510
2020-02-19 12:30 8.43 1110 12300 (1951) 2 (1954) 1040 15 26 67 98 212 957 1760 3410 5510
2020-02-19 12:00 8.46 1130 12300 (1951) 2 (1954) 1040 15 26 67 98 212 957 1760 3410 5510
2020-02-19 11:30 8.49 1150 12300 (1951) 2 (1954) 1040 15 26 67 98 212 957 1760 3410 5510
2020-02-19 11:00 8.52 1170 12300 (1951) 2 (1954) 1040 15 26 67 98 212 957 1760 3410 5510
2020-02-19 10:30 8.54 1190 12300 (1951) 2 (1954) 1040 15 26 67 98 212 957 1760 3410 5510
2020-02-19 10:00 8.58 1210 12300 (1951) 2 (1954) 1040 15 26 67 98 212 957 1760 3410 5510
2020-02-19 09:30 8.62 1240 12300 (1951) 2 (1954) 1040 15 26 67 98 212 957 1760 3410 5510
2020-02-19 09:00 8.65 1260 12300 (1951) 2 (1954) 1040 15 26 67 98 212 957 1760 3410 5510
2020-02-19 08:30 8.66 1270 12300 (1951) 2 (1954) 1040 15 26 67 98 212 957 1760 3410 5510
2020-02-19 08:00 8.73 1320 12300 (1951) 2 (1954) 1040 15 26 67 98 212 957 1760 3410 5510
2020-02-19 07:30 8.75 1330 12300 (1951) 2 (1954) 1040 15 26 67 98 212 957 1760 3410 5510
2020-02-19 07:00 8.80 1370 12300 (1951) 2 (1954) 1040 15 26 67 98 212 957 1760 3410 5510
2020-02-19 06:30 8.82 1390 12300 (1951) 2 (1954) 1040 15 26 67 98 212 957 1760 3410 5510
2020-02-19 06:00 8.85 1410 12300 (1951) 2 (1954) 1040 15 26 67 98 212 957 1760 3410 5510
2020-02-19 05:30 8.89 1440 12300 (1951) 2 (1954) 1040 15 26 67 98 212 957 1760 3410 5510
2020-02-19 05:00 8.94 1480 12300 (1951) 2 (1954) 1040 15 26 67 98 212 957 1760 3410 5510
2020-02-19 04:30 8.96 1490 12300 (1951) 2 (1954) 1040 15 26 67 98 212 957 1760 3410 5510
2020-02-19 04:00 8.99 1520 12300 (1951) 2 (1954) 1040 15 26 67 98 212 957 1760 3410 5510
2020-02-19 03:30 9.02 1540 12300 (1951) 2 (1954) 1040 15 26 67 98 212 957 1760 3410 5510
2020-02-19 03:00 9.07 1580 12300 (1951) 2 (1954) 1040 15 26 67 98 212 957 1760 3410 5510
2020-02-19 02:30 9.10 1610 12300 (1951) 2 (1954) 1040 15 26 67 98 212 957 1760 3410 5510
2020-02-19 02:00 9.13 1630 12300 (1951) 2 (1954) 1040 15 26 67 98 212 957 1760 3410 5510
2020-02-19 01:30 9.16 1660 12300 (1951) 2 (1954) 1040 15 26 67 98 212 957 1760 3410 5510
2020-02-19 01:00 9.21 1700 12300 (1951) 2 (1954) 1040 15 26 67 98 212 957 1760 3410 5510
2020-02-19 00:30 9.21 1700 12300 (1951) 2 (1954) 1040 15 26 67 98 212 957 1760 3410 5510
2020-02-19 00:00 9.24 1730 12300 (1951) 2 (1954) 1040 15 26 67 98 212 957 1760 3410 5510
2020-02-18 23:30 9.28 1760 10000 (1926) 2 (1954) 1010 11 24 60 91 199 591 826 4190 6330
2020-02-18 23:00 9.30 1780 10000 (1926) 2 (1954) 1010 11 24 60 91 199 591 826 4190 6330
2020-02-18 22:30 9.33 1800 10000 (1926) 2 (1954) 1010 11 24 60 91 199 591 826 4190 6330
2020-02-18 22:00 9.36 1820 10000 (1926) 2 (1954) 1010 11 24 60 91 199 591 826 4190 6330
2020-02-18 21:30 9.39 1840 10000 (1926) 2 (1954) 1010 11 24 60 91 199 591 826 4190 6330
2020-02-18 21:00 9.42 1870 10000 (1926) 2 (1954) 1010 11 24 60 91 199 591 826 4190 6330
2020-02-18 20:30 9.42 1870 10000 (1926) 2 (1954) 1010 11 24 60 91 199 591 826 4190 6330
2020-02-18 20:00 9.45 1890 10000 (1926) 2 (1954) 1010 11 24 60 91 199 591 826 4190 6330
2020-02-18 19:30 9.45 1890 10000 (1926) 2 (1954) 1010 11 24 60 91 199 591 826 4190 6330
2020-02-18 19:00 9.48 1910 10000 (1926) 2 (1954) 1010 11 24 60 91 199 591 826 4190 6330
2020-02-18 18:30 9.50 1920 10000 (1926) 2 (1954) 1010 11 24 60 91 199 591 826 4190 6330
2020-02-18 18:00 9.51 1930 10000 (1926) 2 (1954) 1010 11 24 60 91 199 591 826 4190 6330
2020-02-18 17:30 9.50 1920 10000 (1926) 2 (1954) 1010 11 24 60 91 199 591 826 4190 6330
2020-02-18 17:00 9.51 1930 10000 (1926) 2 (1954) 1010 11 24 60 91 199 591 826 4190 6330
2020-02-18 16:30 9.49 1910 10000 (1926) 2 (1954) 1010 11 24 60 91 199 591 826 4190 6330
2020-02-18 16:00 9.50 1920 10000 (1926) 2 (1954) 1010 11 24 60 91 199 591 826 4190 6330
2020-02-18 15:30 9.47 1900 10000 (1926) 2 (1954) 1010 11 24 60 91 199 591 826 4190 6330
2020-02-18 15:00 9.45 1890 10000 (1926) 2 (1954) 1010 11 24 60 91 199 591 826 4190 6330
2020-02-18 14:30 9.42 1870 10000 (1926) 2 (1954) 1010 11 24 60 91 199 591 826 4190 6330
2020-02-18 14:00 9.38 1840 10000 (1926) 2 (1954) 1010 11 24 60 91 199 591 826 4190 6330
2020-02-18 13:30 9.37 1830 10000 (1926) 2 (1954) 1010 11 24 60 91 199 591 826 4190 6330
2020-02-18 13:00 9.33 1800 10000 (1926) 2 (1954) 1010 11 24 60 91 199 591 826 4190 6330
2020-02-18 12:30 9.30 1780 10000 (1926) 2 (1954) 1010 11 24 60 91 199 591 826 4190 6330
2020-02-18 12:00 9.30 1780 10000 (1926) 2 (1954) 1010 11 24 60 91 199 591 826 4190 6330
2020-02-18 11:30 9.26 1740 10000 (1926) 2 (1954) 1010 11 24 60 91 199 591 826 4190 6330
2020-02-18 11:00 9.25 1730 10000 (1926) 2 (1954) 1010 11 24 60 91 199 591 826 4190 6330
2020-02-18 10:30 9.23 1720 10000 (1926) 2 (1954) 1010 11 24 60 91 199 591 826 4190 6330
2020-02-18 10:00 9.19 1680 10000 (1926) 2 (1954) 1010 11 24 60 91 199 591 826 4190 6330
2020-02-18 09:30 9.16 1660 10000 (1926) 2 (1954) 1010 11 24 60 91 199 591 826 4190 6330
2020-02-18 09:00 9.10 1610 10000 (1926) 2 (1954) 1010 11 24 60 91 199 591 826 4190 6330
2020-02-18 08:30 9.04 1560 10000 (1926) 2 (1954) 1010 11 24 60 91 199 591 826 4190 6330
2020-02-18 08:00 8.96 1490 10000 (1926) 2 (1954) 1010 11 24 60 91 199 591 826 4190 6330
2020-02-18 07:30 8.86 1420 10000 (1926) 2 (1954) 1010 11 24 60 91 199 591 826 4190 6330
2020-02-18 07:00 8.75 1330 10000 (1926) 2 (1954) 1010 11 24 60 91 199 591 826 4190 6330
2020-02-18 06:30 8.62 1240 10000 (1926) 2 (1954) 1010 11 24 60 91 199 591 826 4190 6330
2020-02-18 06:00 8.51 1170 10000 (1926) 2 (1954) 1010 11 24 60 91 199 591 826 4190 6330
2020-02-18 05:30 8.39 1090 10000 (1926) 2 (1954) 1010 11 24 60 91 199 591 826 4190 6330
2020-02-18 05:00 8.28 1020 10000 (1926) 2 (1954) 1010 11 24 60 91 199 591 826 4190 6330
2020-02-18 04:30 8.17 951 10000 (1926) 2 (1954) 1010 11 24 60 91 199 591 826 4190 6330
2020-02-18 04:00 8.08 899 10000 (1926) 2 (1954) 1010 11 24 60 91 199 591 826 4190 6330
2020-02-18 03:30 8.01 860 10000 (1926) 2 (1954) 1010 11 24 60 91 199 591 826 4190 6330
2020-02-18 03:00 7.92 812 10000 (1926) 2 (1954) 1010 11 24 60 91 199 591 826 4190 6330
2020-02-18 02:30 7.84 770 10000 (1926) 2 (1954) 1010 11 24 60 91 199 591 826 4190 6330
2020-02-18 02:00 7.79 745 10000 (1926) 2 (1954) 1010 11 24 60 91 199 591 826 4190 6330
2020-02-18 01:30 7.74 720 10000 (1926) 2 (1954) 1010 11 24 60 91 199 591 826 4190 6330
2020-02-18 01:00 7.71 706 10000 (1926) 2 (1954) 1010 11 24 60 91 199 591 826 4190 6330
2020-02-18 00:30 7.67 687 10000 (1926) 2 (1954) 1010 11 24 60 91 199 591 826 4190 6330
2020-02-18 00:00 7.66 682 10000 (1926) 2 (1954) 1010 11 24 60 91 199 591 826 4190 6330

A total of 378 rows are displayed for years 1923 through 2019.